KOGB/OGB METAR and TAF weather

Enter ICAO airport designator
Station Type Date Time Source
KOGB METAR 2019/06/26 20:53 UTC NOAA

KOGB 262053Z AUTO 36005KT 10SM CLR 30/17 A3013 RMK AO2 SLP199 T03000172 56003


Station Type Date Time Source
KOGB Decoded METAR 2019/06/26 20:53 UTC NOAA

ORANGEBURG MUNICIPAL AIRPORT, SC, United States (KOGB) 33-28N 080-51W 59M
Jun 26, 2019 - 04:53 PM EDT / 2019.06.26 2053 UTC
Wind: from the N (360 degrees) at 6 MPH (5 KT):0
Visibility: 10 mile(s):0
Sky conditions: clear
Temperature: 86.0 F (30.0 C)
Dew Point: 63.0 F (17.2 C)
Relative Humidity: 46%
Pressure (altimeter): 30.13 in. Hg (1020 hPa)
Pressure tendency: 0.01 inches (0.3 hPa) lower than three hours ago
ob: KOGB 262053Z AUTO 36005KT 10SM CLR 30/17 A3013 RMK AO2 SLP199 T03000172 56003
cycle: 21

Station Type Date Time Source
KOGB TAF 2019/06/26 21:42 UTC NOAA

TAF
AMD KOGB 262040Z 2621/2718 02006KT P6SM FEW060 OVC200
FM270300 00000KT P6SM BKN200
FM271500 06006KT P6SM SCT200

Example: see airport list